Wynnburg, Tennessee
Current Conditions -  °F | °C
As of 2:35 AM on Friday 19 Dec 2014 (Local Time) from KDYR Reporting Station
Overcast Overcast  
Wind Chill: 31°   Ceiling: 4000
Heat Index: 37°   Visibility: 10mi
Dew Point: 25°   Wind: 8mph
Humidity: 60%   Direction: 20°NNE
Pressure: 30.26"   Gusts: NA
Location:  36.33°N, 89.47°W
Report Text: KDYR 190835Z 02007KT 10SM OVC040 03/M04 A3026 RMK AO1
Loading
Personal Weather Stations






























Interactive Weather Map New forecast layout! Learn more

10-Day Weather Forecast

Advertisements
Track Severe Weather on mobile